Time;durP1;ratioP1;P1;durP2;ratioP2;P2;SDS_P1;SDS_P2;PMS_P1;PMS_P2;Temp;Humidity;BMP_temperature;BMP_pressure;BME280_temperature;BME280_humidity;BME280_pressure;Samples;Min_cycle;Max_cycle;Signal;HPM_P1;HPM_P2
2020/12/25 00:00:06;;;;;;;3.97;2.13;;;4.10;99.90;;;4.81;100.00;98062.84;4996698;28;20876;-82
2020/12/25 00:02:35;;;;;;;7.33;2.77;;;4.10;99.90;;;4.83;100.00;98066.09;5002422;28;21014;-82
2020/12/25 00:05:06;;;;;;;6.70;2.47;;;4.20;99.90;;;4.81;100.00;98073.19;4999966;28;20502;-82
2020/12/25 00:07:33;;;;;;;8.73;2.33;;;4.20;99.90;;;4.80;100.00;98081.94;4996178;28;20467;-81
2020/12/25 00:10:01;;;;;;;3.77;2.13;;;4.20;99.90;;;4.78;100.00;98078.69;4995917;28;20514;-81
2020/12/25 00:12:29;;;;;;;7.13;2.20;;;4.20;99.90;;;4.76;100.00;98076.22;4995640;28;20469;-81
2020/12/25 00:14:56;;;;;;;5.93;2.03;;;4.20;99.90;;;4.82;100.00;98080.84;4992124;28;20823;-81
2020/12/25 00:17:23;;;;;;;4.83;1.83;;;4.30;99.90;;;4.84;100.00;98083.25;4995449;28;20459;-82
2020/12/25 00:19:52;;;;;;;3.67;1.83;;;4.20;99.90;;;4.83;100.00;98084.22;4994323;28;20841;-81
2020/12/25 00:22:20;;;;;;;3.37;1.87;;;4.20;99.90;;;4.88;100.00;98079.41;4995548;28;20898;-82
2020/12/25 00:24:47;;;;;;;3.10;1.60;;;4.20;99.90;;;4.85;100.00;98079.72;4995421;28;20562;-81
2020/12/25 00:27:15;;;;;;;8.50;1.70;;;4.20;99.90;;;4.79;100.00;98088.09;4997009;28;20451;-81
2020/12/25 00:29:42;;;;;;;4.83;1.70;;;4.10;99.90;;;4.79;100.00;98085.50;4995483;28;20491;-82
2020/12/25 00:32:10;;;;;;;2.43;1.70;;;4.10;99.90;;;4.81;100.00;98088.75;4996713;28;20943;-81
2020/12/25 00:34:38;;;;;;;2.17;1.67;;;4.10;99.90;;;4.82;100.00;98100.75;4996017;28;20952;-82
2020/12/25 00:37:06;;;;;;;3.53;1.70;;;4.10;99.90;;;4.74;100.00;98096.31;4994697;28;20460;-81
2020/12/25 00:39:39;;;;;;;3.60;1.70;;;4.10;99.90;;;4.66;100.00;98110.94;4995375;28;20467;-81
2020/12/25 00:42:06;;;;;;;1.83;1.20;;;4.10;99.90;;;4.64;100.00;98107.69;4996311;28;20469;-81
2020/12/25 00:44:34;;;;;;;2.77;1.50;;;4.10;99.90;;;4.62;100.00;98100.06;4996796;28;20530;-82
2020/12/25 00:47:01;;;;;;;1.90;1.40;;;4.10;99.90;;;4.62;100.00;98105.25;4994336;28;20463;-82
2020/12/25 00:49:28;;;;;;;2.80;1.53;;;4.10;99.90;;;4.53;100.00;98103.56;4996540;28;20466;-81
2020/12/25 00:51:56;;;;;;;1.30;1.20;;;3.90;99.90;;;4.56;100.00;98109.25;4996634;28;20462;-81
2020/12/25 00:54:24;;;;;;;1.63;1.40;;;3.90;99.90;;;4.63;100.00;98106.06;4995484;28;20464;-81
2020/12/25 00:56:52;;;;;;;2.47;1.70;;;4.00;99.90;;;4.62;100.00;98107.03;4996333;28;20444;-81
2020/12/25 00:59:19;;;;;;;7.43;1.27;;;4.00;99.90;;;4.61;100.00;98105.41;4997139;28;20938;-81
2020/12/25 01:01:51;;;;;;;1.73;1.50;;;3.90;99.90;;;4.62;100.00;98109.63;4994665;28;20475;-81
2020/12/25 01:04:19;;;;;;;4.60;1.80;;;3.90;99.90;;;4.62;100.00;98104.44;4997576;28;20448;-81
2020/12/25 01:06:47;;;;;;;1.63;1.50;;;3.90;99.90;;;4.59;100.00;98110.72;4995096;28;20465;-82
2020/12/25 01:09:15;;;;;;;4.23;1.53;;;3.80;99.90;;;4.62;100.00;98114.81;4996627;28;20467;-82
2020/12/25 01:11:43;;;;;;;3.33;1.77;;;3.90;99.90;;;4.55;100.00;98119.75;4994515;28;20966;-82
2020/12/25 01:14:11;;;;;;;3.07;1.77;;;3.80;99.90;;;4.58;100.00;98122.06;4996800;28;20983;-82
2020/12/25 01:16:38;;;;;;;3.63;1.90;;;3.90;99.90;;;4.36;100.00;98118.13;4993161;28;20483;-82
2020/12/25 01:19:06;;;;;;;5.30;1.87;;;3.60;99.90;;;4.42;100.00;98117.53;4994952;28;20613;-82
2020/12/25 01:21:33;;;;;;;5.43;2.60;;;3.70;99.90;;;4.40;100.00;98116.03;4994167;28;20476;-81
2020/12/25 01:24:01;;;;;;;2.53;1.80;;;3.60;99.90;;;4.35;100.00;98119.06;4994397;28;20486;-81
2020/12/25 01:26:29;;;;;;;3.53;2.30;;;3.60;99.90;;;4.17;100.00;98125.16;4993216;28;20853;-82
2020/12/25 01:29:03;;;;;;;4.03;2.00;;;3.40;99.90;;;4.11;100.00;98134.31;4996835;28;20494;-82
2020/12/25 01:31:31;;;;;;;3.33;1.93;;;3.30;99.90;;;4.16;100.00;98145.06;4993974;28;20466;-81
2020/12/25 01:33:59;;;;;;;4.03;2.10;;;3.30;99.90;;;4.28;100.00;98146.50;4996816;28;21095;-81
2020/12/25 01:36:26;;;;;;;4.03;2.00;;;3.50;99.90;;;4.30;100.00;98152.34;4994146;28;20460;-81
2020/12/25 01:38:54;;;;;;;3.67;2.10;;;3.50;99.90;;;4.36;100.00;98154.34;4996110;28;20566;-82
2020/12/25 01:41:23;;;;;;;3.80;2.30;;;3.60;99.90;;;4.32;100.00;98153.00;4996570;28;20817;-82
2020/12/25 01:43:50;;;;;;;2.33;1.90;;;3.60;99.90;;;4.29;100.00;98161.06;4997034;28;20964;-81
2020/12/25 01:46:19;;;;;;;4.70;2.13;;;3.50;99.90;;;4.36;100.00;98167.28;4997114;28;20996;-81
2020/12/25 01:48:48;;;;;;;2.60;1.83;;;3.50;99.90;;;4.33;100.00;98169.34;4995268;28;20468;-81
2020/12/25 01:51:20;;;;;;;2.70;2.30;;;3.60;99.90;;;4.23;100.00;98166.81;4994254;28;20870;-81
2020/12/25 01:53:48;;;;;;;3.70;2.40;;;3.40;99.90;;;4.15;100.00;98169.31;4994937;28;20473;-81
2020/12/25 01:56:18;;;;;;;5.00;2.73;;;3.40;99.90;;;4.16;100.00;98173.53;4995588;28;20455;-81
2020/12/25 01:58:46;;;;;;;5.07;2.33;;;3.40;99.90;;;4.26;100.00;98181.25;4996008;28;20471;-81
2020/12/25 02:01:15;;;;;;;5.37;2.67;;;3.50;99.90;;;4.28;100.00;98176.72;4993468;28;20465;-81
2020/12/25 02:03:43;;;;;;;3.17;2.30;;;3.60;99.90;;;4.30;100.00;98174.81;4992563;28;21071;-82
2020/12/25 02:06:12;;;;;;;4.70;2.00;;;3.60;99.90;;;4.41;100.00;98180.59;4995893;28;20601;-81
2020/12/25 02:08:39;;;;;;;5.57;2.17;;;3.60;99.90;;;4.39;100.00;98187.72;4993601;28;20471;-81
2020/12/25 02:11:08;;;;;;;3.53;2.10;;;3.60;99.90;;;4.36;100.00;98193.19;4997480;28;20537;-81
2020/12/25 02:13:38;;;;;;;2.30;2.10;;;3.60;99.90;;;4.37;100.00;98192.19;4992937;28;20489;-82
2020/12/25 02:16:07;;;;;;;2.83;1.90;;;3.60;99.90;;;4.38;100.00;98188.66;4992981;28;20963;-81
2020/12/25 02:18:37;;;;;;;2.57;1.70;;;3.60;99.90;;;4.37;100.00;98189.59;4994393;28;20474;-81
2020/12/25 02:21:06;;;;;;;3.87;2.30;;;3.60;99.90;;;4.31;100.00;98185.00;4995682;28;20463;-82
2020/12/25 02:23:34;;;;;;;13.60;2.47;;;3.60;99.90;;;4.28;100.00;98177.53;4999502;28;20529;-82
2020/12/25 02:26:01;;;;;;;2.47;1.80;;;3.60;99.90;;;4.32;100.00;98181.47;4999053;28;20510;-81
2020/12/25 02:28:29;;;;;;;4.27;2.10;;;3.60;99.90;;;4.33;100.00;98190.88;5001323;28;20498;-82
2020/12/25 02:30:56;;;;;;;3.70;1.87;;;3.60;99.90;;;4.29;100.00;98192.13;4997664;28;20483;-82
2020/12/25 02:33:27;;;;;;;3.13;2.13;;;3.60;99.90;;;4.34;100.00;98197.66;5000117;28;20538;-81
2020/12/25 02:35:54;;;;;;;4.37;2.00;;;3.70;99.90;;;4.29;100.00;98197.31;4997207;28;21032;-81
2020/12/25 02:38:23;;;;;;;3.40;2.30;;;3.60;99.90;;;4.29;100.00;98199.88;4997043;28;20454;-81
2020/12/25 02:40:51;;;;;;;2.80;2.10;;;3.60;99.90;;;4.29;100.00;98192.13;4997627;28;20479;-81
2020/12/25 02:43:18;;;;;;;2.80;2.20;;;3.60;99.90;;;4.33;100.00;98193.47;5000787;28;20485;-82
2020/12/25 02:45:46;;;;;;;6.47;2.13;;;3.70;99.90;;;4.26;100.00;98201.94;4999743;28;21063;-82
2020/12/25 02:48:13;;;;;;;4.20;2.33;;;3.50;99.90;;;4.32;100.00;98184.06;4998661;28;20473;-81
2020/12/25 02:50:41;;;;;;;2.20;1.80;;;3.60;99.90;;;4.39;100.00;98182.53;4997756;28;20463;-81
2020/12/25 02:53:09;;;;;;;2.90;1.73;;;3.70;99.90;;;4.39;100.00;98198.06;4999729;28;20533;-82
2020/12/25 02:55:37;;;;;;;3.73;2.30;;;3.60;99.90;;;4.38;100.00;98204.19;4996943;28;20474;-81
2020/12/25 02:58:05;;;;;;;2.30;2.03;;;3.60;99.90;;;4.32;100.00;98203.94;4998271;28;20479;-81
2020/12/25 03:00:32;;;;;;;2.57;1.90;;;3.50;99.90;;;4.37;100.00;98204.34;4993591;28;20889;-81
2020/12/25 03:03:00;;;;;;;2.30;2.10;;;3.60;99.90;;;4.39;100.00;98205.81;4999372;28;20455;-81
2020/12/25 03:05:33;;;;;;;3.17;1.83;;;3.60;99.90;;;4.38;100.00;98206.78;4998062;28;20535;-82
2020/12/25 03:08:01;;;;;;;9.60;2.43;;;3.60;99.90;;;4.44;100.00;98203.59;4996235;28;20474;-81
2020/12/25 03:10:28;;;;;;;2.93;2.07;;;3.80;99.90;;;4.42;100.00;98208.13;4999580;28;20968;-81
2020/12/25 03:12:56;;;;;;;3.40;2.40;;;3.80;99.90;;;4.44;100.00;98216.53;4998443;28;20476;-81
2020/12/25 03:15:24;;;;;;;5.90;2.73;;;3.80;99.90;;;4.45;100.00;98218.19;4994915;28;20828;-81
2020/12/25 03:17:52;;;;;;;2.83;2.23;;;3.80;99.90;;;4.47;100.00;98221.47;4998560;28;20542;-81
2020/12/25 03:20:19;;;;;;;3.33;2.37;;;3.80;99.90;;;4.41;100.00;98221.19;4996530;28;20475;-82
2020/12/25 03:22:47;;;;;;;2.33;2.10;;;3.80;99.90;;;4.42;100.00;98225.44;4996436;28;20463;-82
2020/12/25 03:25:14;;;;;;;6.37;2.40;;;3.90;99.90;;;4.39;100.00;98223.94;4997320;28;20847;-82
2020/12/25 03:27:42;;;;;;;2.60;1.70;;;3.80;99.90;;;4.20;100.00;98229.19;4997602;28;21000;-81
2020/12/25 03:30:11;;;;;;;3.40;2.90;;;3.50;99.90;;;4.26;100.00;98228.66;4997013;28;20585;-82
2020/12/25 03:32:39;;;;;;;3.30;2.80;;;3.60;99.90;;;4.28;100.00;98233.66;4996923;28;20476;-81
2020/12/25 03:35:09;;;;;;;3.23;2.40;;;3.70;99.90;;;4.33;100.00;98234.88;4998097;28;20483;-81
2020/12/25 03:37:37;;;;;;;4.67;2.70;;;3.80;99.90;;;4.41;100.00;98237.56;4996164;28;20498;-82
2020/12/25 03:40:05;;;;;;;4.67;2.90;;;3.80;99.90;;;4.45;100.00;98233.72;4998108;28;20468;-81
2020/12/25 03:42:32;;;;;;;4.27;2.40;;;3.90;99.90;;;4.47;100.00;98243.94;4997418;28;20479;-82
2020/12/25 03:45:00;;;;;;;5.70;2.73;;;3.90;99.90;;;4.49;100.00;98250.59;4998770;28;20519;-81
2020/12/25 03:47:28;;;;;;;3.33;2.40;;;3.90;99.90;;;4.37;100.00;98248.34;4996093;28;20468;-81
2020/12/25 03:49:56;;;;;;;4.20;2.50;;;3.80;99.90;;;4.46;100.00;98252.66;4999533;28;20473;-81
2020/12/25 03:52:24;;;;;;;2.77;2.40;;;3.90;99.90;;;4.46;100.00;98256.06;4997311;28;20517;-82
2020/12/25 03:54:51;;;;;;;3.37;2.20;;;3.90;99.90;;;4.49;100.00;98250.59;4996419;28;20813;-82
2020/12/25 03:57:19;;;;;;;3.90;2.70;;;3.80;99.90;;;4.43;100.00;98253.78;4997459;28;20478;-81
2020/12/25 03:59:46;;;;;;;3.17;2.23;;;3.80;99.90;;;4.43;100.00;98268.47;4997501;28;20479;-82
2020/12/25 04:02:14;;;;;;;2.93;2.53;;;3.70;99.90;;;4.38;100.00;98263.72;4996896;28;20464;-81
2020/12/25 04:04:42;;;;;;;2.93;2.50;;;3.80;99.90;;;4.44;100.00;98260.56;4996710;28;20479;-81
2020/12/25 04:07:10;;;;;;;3.27;2.20;;;3.80;99.90;;;4.43;100.00;98256.34;4999093;28;20525;-81
2020/12/25 04:09:37;;;;;;;8.20;2.63;;;3.70;99.90;;;4.50;100.00;98257.41;4995960;28;20472;-81
2020/12/25 04:12:05;;;;;;;4.90;2.60;;;3.90;99.90;;;4.43;100.00;98266.72;4997959;28;20456;-82
2020/12/25 04:14:32;;;;;;;3.50;2.73;;;3.80;99.90;;;4.50;100.00;98267.78;4996332;28;20467;-81
2020/12/25 04:17:00;;;;;;;4.13;2.73;;;3.90;99.90;;;4.53;100.00;98266.66;4995035;28;20471;-82
2020/12/25 04:19:27;;;;;;;3.37;2.87;;;3.90;99.90;;;4.51;100.00;98264.22;4997655;28;20825;-81
2020/12/25 04:21:56;;;;;;;5.10;3.07;;;3.90;99.90;;;4.57;100.00;98268.84;4996014;28;20889;-81
2020/12/25 04:24:23;;;;;;;7.30;2.73;;;4.00;99.90;;;4.62;100.00;98270.97;4997343;28;20483;-81
2020/12/25 04:26:51;;;;;;;3.60;2.80;;;4.00;99.90;;;4.64;100.00;98273.44;4994460;28;20946;-81
2020/12/25 04:29:18;;;;;;;4.43;3.03;;;3.90;99.90;;;4.61;100.00;98276.31;4997417;28;20487;-82
2020/12/25 04:31:46;;;;;;;3.33;2.90;;;3.90;99.90;;;4.67;100.00;98280.91;4996348;28;20463;-82
2020/12/25 04:34:14;;;;;;;4.73;2.67;;;4.00;99.90;;;4.62;100.00;98283.91;4998400;28;20471;-81
2020/12/25 04:36:41;;;;;;;12.00;4.40;;;4.00;99.90;;;4.60;100.00;98292.78;4996277;28;20493;-81
2020/12/25 04:39:10;;;;;;;2.87;2.63;;;4.00;99.90;;;4.53;100.00;98288.19;4998451;28;20459;-81
2020/12/25 04:41:37;;;;;;;2.83;2.53;;;4.00;99.90;;;4.53;100.00;98293.38;4997054;28;20470;-81
2020/12/25 04:44:07;;;;;;;5.53;3.23;;;3.90;99.90;;;4.60;100.00;98293.63;4996492;28;20466;-81
2020/12/25 04:46:34;;;;;;;3.37;2.47;;;4.00;99.90;;;4.52;100.00;98307.28;4994033;28;20973;-81
2020/12/25 04:49:03;;;;;;;5.13;2.83;;;3.90;99.90;;;4.57;100.00;98305.09;4996465;28;20475;-81
2020/12/25 04:51:30;;;;;;;9.53;2.70;;;3.90;99.90;;;4.61;100.00;98317.75;4995748;28;20474;-81
2020/12/25 04:53:58;;;;;;;3.37;2.90;;;4.00;99.90;;;4.61;100.00;98322.91;4996518;28;20471;-82
2020/12/25 04:56:26;;;;;;;4.73;3.30;;;3.90;99.90;;;4.65;100.00;98329.44;4995413;28;20473;-81
2020/12/25 04:58:54;;;;;;;3.90;3.50;;;4.00;99.90;;;4.58;100.00;98335.19;4996496;28;20478;-81
2020/12/25 05:01:22;;;;;;;4.17;2.80;;;3.90;99.90;;;4.60;100.00;98337.63;4997176;28;20462;-81
2020/12/25 05:03:49;;;;;;;3.50;2.77;;;4.00;99.90;;;4.47;100.00;98335.38;4997136;28;20468;-81
2020/12/25 05:06:19;;;;;;;3.30;2.80;;;3.80;99.90;;;4.50;100.00;98345.44;4996100;28;20534;-82
2020/12/25 05:08:48;;;;;;;2.83;2.53;;;3.80;99.90;;;4.51;100.00;98346.28;4996748;28;20458;-81
2020/12/25 05:11:18;;;;;;;3.70;3.40;;;3.90;99.90;;;4.45;100.00;98346.81;4997432;28;20948;-81
2020/12/25 05:13:48;;;;;;;2.73;2.50;;;3.80;99.90;;;4.48;100.00;98352.53;4995775;28;21080;-82
2020/12/25 05:16:19;;;;;;;3.20;2.90;;;3.80;99.90;;;4.46;100.00;98354.44;4993402;28;20557;-81
2020/12/25 05:18:49;;;;;;;3.67;2.93;;;3.70;99.90;;;4.45;100.00;98352.81;4995147;28;21212;-81
2020/12/25 05:21:18;;;;;;;4.00;3.10;;;3.70;99.90;;;4.33;100.00;98356.53;4994435;28;20462;-81
2020/12/25 05:23:48;;;;;;;3.90;3.03;;;3.70;99.90;;;4.32;100.00;98356.66;4995234;28;20495;-81
2020/12/25 05:26:18;;;;;;;6.10;3.10;;;3.60;99.90;;;4.31;100.00;98368.78;4993599;28;20498;-82
2020/12/25 05:28:49;;;;;;;4.70;3.20;;;3.60;99.90;;;4.25;100.00;98371.94;4994630;28;21007;-82
2020/12/25 05:31:18;;;;;;;4.80;3.70;;;3.50;99.90;;;4.30;100.00;98380.13;4997702;28;20916;-81
2020/12/25 05:33:49;;;;;;;5.23;3.30;;;3.50;99.90;;;4.34;100.00;98378.84;4995943;28;20529;-81
2020/12/25 05:36:17;;;;;;;4.60;3.13;;;3.60;99.90;;;4.31;100.00;98381.72;4993510;28;20460;-82
2020/12/25 05:38:49;;;;;;;4.67;3.67;;;3.60;99.90;;;4.27;100.00;98380.38;4990729;28;20537;-83
2020/12/25 05:41:17;;;;;;;4.00;3.17;;;3.50;99.90;;;4.30;100.00;98387.88;4990511;28;20470;-81
2020/12/25 05:43:50;;;;;;;27.27;12.50;;;3.70;99.90;;;4.33;100.00;98385.00;4994431;28;20830;-83
2020/12/25 05:46:17;;;;;;;4.33;3.53;;;3.70;99.90;;;4.36;100.00;98389.09;4994368;28;20478;-82
2020/12/25 05:48:50;;;;;;;9.07;4.23;;;3.80;99.90;;;4.17;100.00;98391.69;4991350;28;21024;-84
2020/12/25 05:51:22;;;;;;;5.17;3.43;;;3.60;99.90;;;4.24;100.00;98395.34;4996635;28;20469;-83
2020/12/25 05:53:54;;;;;;;9.30;3.60;;;3.70;99.90;;;4.23;100.00;98404.91;4992843;28;20452;-84
2020/12/25 05:56:21;;;;;;;5.90;3.97;;;3.60;99.90;;;4.23;100.00;98401.50;4994360;28;20435;-83
2020/12/25 05:58:55;;;;;;;5.70;3.33;;;3.70;99.90;;;4.19;100.00;98403.56;4995794;28;20444;-83
2020/12/25 06:01:25;;;;;;;4.80;3.67;;;3.70;99.90;;;4.15;100.00;98404.78;4996592;28;20456;-82
2020/12/25 06:03:52;;;;;;;7.90;3.50;;;3.60;99.90;;;4.17;100.00;98405.44;4994498;28;20498;-82
2020/12/25 06:06:28;;;;;;;7.17;3.90;;;3.60;99.90;;;4.13;100.00;98406.66;4994791;28;20511;-83
2020/12/25 06:09:05;;;;;;;30.90;13.83;;;3.50;99.90;;;4.18;100.00;98417.44;4993742;28;20475;-83
2020/12/25 06:11:33;;;;;;;6.03;4.53;;;3.60;99.90;;;4.17;100.00;98414.97;4992862;28;20517;-82
2020/12/25 06:14:02;;;;;;;4.33;3.33;;;3.60;99.90;;;4.17;100.00;98422.75;4993169;28;20491;-82
2020/12/25 06:16:30;;;;;;;4.30;3.20;;;3.60;99.90;;;4.16;100.00;98419.34;4993712;28;20467;-83
2020/12/25 06:19:09;;;;;;;3.80;3.20;;;3.50;99.90;;;4.04;100.00;98423.84;4991807;28;20471;-81
2020/12/25 06:21:48;;;;;;;11.17;3.70;;;3.50;99.90;;;4.09;100.00;98433.81;4994482;28;20459;-83
2020/12/25 06:24:19;;;;;;;7.33;3.80;;;3.50;99.90;;;4.04;100.00;98428.19;4993067;28;20881;-83
2020/12/25 06:26:53;;;;;;;5.60;4.03;;;3.50;99.90;;;3.98;100.00;98437.34;4995749;28;20527;-83
2020/12/25 06:29:23;;;;;;;7.80;3.60;;;3.50;99.90;;;3.88;100.00;98435.69;4992612;28;20523;-83
2020/12/25 06:31:53;;;;;;;5.93;4.00;;;3.30;99.90;;;3.90;100.00;98436.38;4994245;28;20473;-82
2020/12/25 06:34:21;;;;;;;3.77;3.37;;;3.30;99.90;;;3.89;100.00;98437.31;4995227;28;20479;-83
2020/12/25 06:36:50;;;;;;;6.50;4.20;;;3.40;99.90;;;3.88;100.00;98430.53;4992493;28;20503;-82
2020/12/25 06:39:22;;;;;;;4.93;3.77;;;3.40;99.90;;;3.90;100.00;98446.72;4994086;28;20463;-82
2020/12/25 06:41:50;;;;;;;4.13;3.70;;;3.30;99.90;;;3.90;100.00;98444.94;4991866;28;20517;-82
2020/12/25 06:44:18;;;;;;;7.33;3.83;;;3.30;99.90;;;3.90;100.00;98449.31;4993596;28;20819;-82
2020/12/25 06:46:51;;;;;;;5.30;3.47;;;3.30;99.90;;;3.86;100.00;98453.09;4993059;28;20616;-83
2020/12/25 06:49:21;;;;;;;6.70;4.40;;;3.30;99.90;;;3.84;100.00;98455.03;4995120;28;20471;-82
2020/12/25 06:51:49;;;;;;;5.77;3.30;;;3.30;99.90;;;3.73;100.00;98460.31;4993928;28;20463;-82
2020/12/25 06:54:19;;;;;;;5.03;3.17;;;3.10;99.90;;;3.76;100.00;98457.44;4992484;28;20479;-83
2020/12/25 06:56:51;;;;;;;17.60;4.53;;;3.20;99.90;;;3.76;100.00;98457.44;4993481;28;20479;-82
2020/12/25 06:59:21;;;;;;;6.20;4.13;;;3.20;99.90;;;3.71;100.00;98469.97;4994188;28;20470;-82
2020/12/25 07:01:52;;;;;;;8.00;4.27;;;3.10;99.90;;;3.67;100.00;98463.44;4993187;28;20538;-82
2020/12/25 07:04:28;;;;;;;6.00;3.70;;;3.10;99.90;;;3.68;100.00;98467.66;4994432;28;20495;-82
2020/12/25 07:07:00;;;;;;;6.33;3.93;;;3.20;99.90;;;3.69;100.00;98471.88;4992231;28;20501;-82
2020/12/25 07:09:37;;;;;;;4.87;3.70;;;3.20;99.90;;;3.53;100.00;98473.22;4997474;28;21002;-82
2020/12/25 07:12:12;;;;;;;4.83;3.93;;;3.00;99.90;;;3.60;100.00;98485.59;4994763;28;20459;-83
2020/12/25 07:14:40;;;;;;;6.27;3.80;;;3.10;99.90;;;3.41;100.00;98484.59;4996613;28;20458;-83
2020/12/25 07:17:09;;;;;;;7.97;4.00;;;2.80;99.90;;;3.50;100.00;98489.00;4996311;28;20892;-82
2020/12/25 07:19:39;;;;;;;3.87;3.07;;;3.00;99.90;;;3.58;100.00;98495.22;4997976;28;20475;-82
2020/12/25 07:22:08;;;;;;;4.20;3.40;;;3.10;99.90;;;3.57;100.00;98488.44;4998240;28;20475;-82
2020/12/25 07:24:40;;;;;;;4.27;3.73;;;3.10;99.90;;;3.49;100.00;98482.16;4999170;28;21085;-82
2020/12/25 07:27:09;;;;;;;4.00;3.60;;;3.00;99.90;;;3.40;100.00;98495.88;4997607;28;20506;-83
2020/12/25 07:29:38;;;;;;;8.30;3.57;;;2.90;99.90;;;3.38;100.00;98495.19;4996369;28;21026;-83
2020/12/25 07:32:09;;;;;;;7.80;3.50;;;2.90;99.90;;;3.42;100.00;98493.97;4997497;28;20475;-83
2020/12/25 07:34:37;;;;;;;6.40;4.00;;;2.90;99.90;;;3.44;100.00;98499.00;4995716;28;21076;-83
2020/12/25 07:37:07;;;;;;;3.70;3.10;;;2.90;99.90;;;3.39;100.00;98499.41;4997488;28;20499;-82
2020/12/25 07:39:34;;;;;;;4.10;3.33;;;2.90;99.90;;;3.31;100.00;98499.25;4999278;28;20566;-83
2020/12/25 07:42:02;;;;;;;2.90;2.60;;;2.80;99.90;;;3.30;100.00;98507.09;4995905;28;20823;-83
2020/12/25 07:44:29;;;;;;;3.20;2.47;;;2.70;99.90;;;3.30;100.00;98510.50;4998492;28;21209;-83
2020/12/25 07:46:57;;;;;;;3.07;2.70;;;2.70;99.90;;;3.36;100.00;98517.78;4995016;28;20503;-83
2020/12/25 07:49:29;;;;;;;2.93;2.33;;;2.80;99.90;;;3.20;100.00;98527.75;4995365;28;21012;-83
2020/12/25 07:51:59;;;;;;;4.03;3.00;;;2.60;99.90;;;3.19;100.00;98536.47;4995355;28;20961;-84
2020/12/25 07:54:28;;;;;;;3.00;2.70;;;2.60;99.90;;;3.17;100.00;98537.53;4996841;28;20478;-83
2020/12/25 07:56:57;;;;;;;5.27;2.23;;;2.60;99.90;;;3.20;100.00;98545.84;4996034;28;20476;-84
2020/12/25 07:59:27;;;;;;;2.63;2.40;;;2.60;99.90;;;3.19;100.00;98546.81;4996331;28;20468;-83
2020/12/25 08:01:58;;;;;;;3.10;2.23;;;2.70;99.90;;;3.19;100.00;98548.56;4995300;28;20479;-83
2020/12/25 08:04:30;;;;;;;3.70;2.43;;;2.70;99.90;;;3.20;100.00;98548.41;4995567;28;20896;-84
2020/12/25 08:06:58;;;;;;;7.13;2.50;;;2.70;99.90;;;3.23;100.00;98555.13;4996845;28;20507;-83
2020/12/25 08:09:31;;;;;;;35.90;11.87;;;2.70;99.90;;;3.24;100.00;98562.72;4996631;28;20469;-83
2020/12/25 08:12:02;;;;;;;7.63;2.77;;;2.60;99.90;;;3.22;100.00;98562.03;4996221;28;20489;-83
2020/12/25 08:14:33;;;;;;;5.10;2.43;;;2.70;99.90;;;3.19;100.00;98570.06;4995945;28;20467;-83
2020/12/25 08:17:01;;;;;;;4.13;2.13;;;2.60;99.90;;;3.24;100.00;98575.66;4998427;28;20545;-83
2020/12/25 08:19:34;;;;;;;5.57;2.27;;;2.70;99.90;;;3.22;100.00;98569.78;4997946;28;20447;-83
2020/12/25 08:22:08;;;;;;;3.70;2.93;;;2.70;99.90;;;3.25;100.00;98572.13;4998292;28;21051;-83
2020/12/25 08:24:37;;;;;;;8.70;2.20;;;2.70;99.90;;;3.25;100.00;98579.88;4997074;28;20487;-83
2020/12/25 08:27:05;;;;;;;3.50;2.30;;;2.70;99.90;;;3.26;100.00;98573.78;4995063;28;20522;-83
2020/12/25 08:29:33;;;;;;;3.33;2.30;;;2.70;99.90;;;3.34;100.00;98588.59;4994426;28;20999;-83
2020/12/25 08:32:08;;;;;;;2.87;2.00;;;2.80;99.90;;;3.34;100.00;98575.69;4995438;28;20471;-83
2020/12/25 08:34:37;;;;;;;3.30;2.07;;;2.70;99.90;;;3.38;100.00;98582.25;4995026;28;20850;-83
2020/12/25 08:37:07;;;;;;;2.30;2.10;;;2.70;99.90;;;3.32;100.00;98578.41;4996735;28;20463;-83
2020/12/25 08:39:35;;;;;;;5.43;2.43;;;2.70;99.90;;;3.36;100.00;98584.97;4994918;28;20464;-82
2020/12/25 08:42:03;;;;;;;4.43;2.20;;;2.80;99.90;;;3.36;100.00;98590.13;4995715;28;20502;-82
2020/12/25 08:44:31;;;;;;;2.17;1.93;;;2.80;99.90;;;3.34;100.00;98589.44;4996020;28;20463;-82
2020/12/25 08:47:09;;;;;;;3.67;2.37;;;2.80;99.90;;;3.30;100.00;98582.88;4996279;28;20499;-82
2020/12/25 08:49:38;;;;;;;2.70;2.20;;;2.70;99.90;;;3.25;100.00;98581.63;4994801;28;20473;-82
2020/12/25 08:52:21;;;;;;;2.50;2.10;;;2.70;99.90;;;3.20;100.00;98588.94;4995323;28;20517;-82
2020/12/25 08:54:56;;;;;;;20.57;8.83;;;2.60;99.90;;;3.17;100.00;98584.84;4998712;28;20525;-82
2020/12/25 08:57:25;;;;;;;4.00;2.47;;;2.60;99.90;;;3.13;100.00;98580.88;4996161;28;20455;-82
2020/12/25 09:00:16;;;;;;;2.43;1.90;;;2.60;99.90;;;3.13;100.00;98583.47;4996912;28;20460;-83
2020/12/25 09:02:44;;;;;;;6.40;2.60;;;2.60;99.90;;;3.08;100.00;98579.63;4985810;28;20486;-89
2020/12/25 09:05:12;;;;;;;3.60;2.37;;;2.60;99.90;;;3.12;100.00;98587.00;4998743;28;20946;-82
2020/12/25 09:07:40;;;;;;;4.50;2.03;;;2.60;99.90;;;3.14;100.00;98590.28;4993572;28;20499;-82
2020/12/25 09:10:08;;;;;;;11.73;1.90;;;2.60;99.90;;;3.12;100.00;98597.34;4993912;28;20459;-82
2020/12/25 09:12:35;;;;;;;3.00;2.07;;;2.60;99.90;;;3.14;100.00;98608.34;4995125;28;20459;-82
2020/12/25 09:15:03;;;;;;;3.83;1.67;;;2.60;99.90;;;3.12;100.00;98599.94;4995230;28;20468;-82
2020/12/25 09:17:31;;;;;;;2.87;2.47;;;2.50;99.90;;;3.16;100.00;98597.91;4994799;28;20829;-82
2020/12/25 09:19:58;;;;;;;3.10;2.30;;;2.60;99.90;;;3.22;100.00;98610.31;4994081;28;20448;-82
2020/12/25 09:22:27;;;;;;;7.30;3.63;;;2.60;99.90;;;3.24;100.00;98609.22;4992780;28;20941;-82
2020/12/25 09:24:54;;;;;;;9.87;4.67;;;2.60;99.90;;;3.27;100.00;98615.91;4995200;28;20865;-82
2020/12/25 09:27:22;;;;;;;14.53;5.10;;;2.70;99.90;;;3.23;100.00;98615.34;4994506;28;21026;-82
2020/12/25 09:29:50;;;;;;;4.30;2.30;;;2.70;99.90;;;3.20;100.00;98633.69;4992924;28;20496;-81
2020/12/25 09:32:17;;;;;;;2.93;2.03;;;2.70;99.90;;;3.16;100.00;98629.72;4994046;28;20456;-81
2020/12/25 09:34:45;;;;;;;4.23;2.00;;;2.60;99.90;;;3.19;100.00;98632.06;4996043;28;21011;-82
2020/12/25 09:37:12;;;;;;;6.10;2.50;;;2.60;99.90;;;3.21;100.00;98637.91;4996636;28;20470;-81
2020/12/25 09:39:47;;;;;;;3.17;2.00;;;2.60;99.90;;;3.20;100.00;98638.84;4995580;28;20444;-81
2020/12/25 09:42:16;;;;;;;2.77;1.97;;;2.60;99.90;;;3.23;100.00;98640.38;4996591;28;20459;-82
2020/12/25 09:44:44;;;;;;;2.13;1.93;;;2.70;99.90;;;3.17;100.00;98646.03;4993176;28;20463;-82
2020/12/25 09:47:11;;;;;;;3.93;1.90;;;2.70;99.90;;;3.18;100.00;98647.69;4993528;28;20494;-81
2020/12/25 09:49:39;;;;;;;5.43;2.30;;;2.60;99.90;;;3.22;100.00;98649.06;4996968;28;20455;-81
2020/12/25 09:52:06;;;;;;;3.33;2.30;;;2.60;99.90;;;3.23;100.00;98653.31;4994525;28;20496;-81
2020/12/25 09:54:34;;;;;;;3.87;2.70;;;2.60;99.90;;;3.24;100.00;98653.16;4994788;28;20470;-82
2020/12/25 09:57:03;;;;;;;2.07;1.80;;;2.70;99.90;;;3.27;100.00;98658.06;4996437;28;20466;-81
2020/12/25 09:59:31;;;;;;;2.83;2.30;;;2.70;99.90;;;3.14;100.00;98656.63;4995602;28;20471;-81
2020/12/25 10:01:59;;;;;;;3.00;2.30;;;2.50;99.90;;;3.24;100.00;98658.31;4993968;28;20471;-82
2020/12/25 10:04:26;;;;;;;3.73;2.50;;;2.60;99.90;;;3.24;100.00;98663.50;4995244;28;20813;-81
2020/12/25 10:06:57;;;;;;;4.77;1.90;;;2.50;99.90;;;3.30;100.00;98664.75;4994887;28;20510;-81
2020/12/25 10:09:24;;;;;;;4.40;2.50;;;2.70;99.90;;;3.30;100.00;98667.34;4995145;28;20517;-82
2020/12/25 10:11:54;;;;;;;5.77;1.90;;;2.70;99.90;;;3.33;100.00;98672.28;4995319;28;20961;-82
2020/12/25 10:14:23;;;;;;;3.47;2.30;;;2.80;99.90;;;3.23;100.00;98663.63;4995128;28;20694;-81
2020/12/25 10:16:50;;;;;;;2.23;2.03;;;2.70;99.90;;;3.25;100.00;98664.31;4994497;28;20471;-81
2020/12/25 10:19:18;;;;;;;4.70;2.50;;;2.70;99.90;;;3.30;100.00;98662.16;4995537;28;20467;-81
2020/12/25 10:21:45;;;;;;;7.30;2.90;;;2.80;99.90;;;3.33;100.00;98667.09;4997886;28;20475;-83
2020/12/25 10:24:13;;;;;;;3.27;2.57;;;2.80;99.90;;;3.31;100.00;98664.63;4995633;28;20842;-81
2020/12/25 10:26:40;;;;;;;4.20;2.20;;;2.70;99.90;;;3.32;100.00;98661.13;4993504;28;20508;-82
2020/12/25 10:29:08;;;;;;;4.17;2.47;;;2.70;99.90;;;3.33;100.00;98667.09;4995437;28;20566;-81
2020/12/25 10:31:37;;;;;;;4.83;2.63;;;2.70;99.90;;;3.38;100.00;98665.75;4993952;28;20979;-81